This is the latest recevied weather packets stored in our database for station/object SR6WXJG. If no packets are shown the sender has not sent any weather packets the latest 1 day(s).
| Time | Temp. | Humidity | Pressure | Rain* | Wind** | Luminosity | Snow |
|---|---|---|---|---|---|---|---|
| 1777958434 | 13.89° C | 76% | 1009 hPa | 0 mm | 0.45 m/s, 357° | - | - |
| 1777957544 | 13.33° C | 77% | 1009 hPa | 0 mm | 0.45 m/s, 357° | - | - |
| 1777956633 | 13.33° C | 82% | 1009 hPa | 0 mm | 0.45 m/s, 357° | - | - |
| 1777955733 | 12.78° C | 82% | 1009 hPa | 0 mm | 0.45 m/s, 357° | - | - |
| 1777954833 | 12.78° C | 80% | 1009 hPa | 0 mm | 0 m/s | - | - |
| 1777953932 | 12.78° C | 80% | 1009 hPa | 0 mm | 0 m/s | - | - |
| 1777953032 | 12.22° C | 83% | 1009 hPa | 0 mm | 0 m/s | - | - |
| 1777952132 | 12.78° C | 83% | 1009 hPa | 0 mm | 0 m/s | - | - |
| 1777951231 | 12.78° C | 79% | 1010 hPa | 0 mm | 0.45 m/s, 49° | - | - |
| 1777950331 | 12.78° C | 79% | 1010 hPa | 0 mm | 0.45 m/s, 49° | - | - |
| 1777949431 | 12.78° C | 83% | 1010 hPa | 0 mm | 0.45 m/s, 49° | - | - |
| 1777948530 | 12.78° C | 83% | 1010 hPa | 0 mm | 0.45 m/s, 49° | - | - |
| 1777947630 | 13.33° C | 79% | 1010 hPa | 0 mm | 1.34 m/s, 345° | - | - |
| 1777946729 | 13.33° C | 78% | 1010 hPa | 0 mm | 1.34 m/s, 345° | - | - |
| 1777945829 | 13.33° C | 83% | 1010 hPa | 0 mm | 1.34 m/s, 345° | - | - |
| 1777944929 | 13.33° C | 83% | 1010 hPa | 0 mm | 1.34 m/s, 345° | - | - |
| 1777944028 | 13.89° C | 77% | 1010 hPa | 0 mm | 1.34 m/s, 32° | - | - |
| 1777943128 | 13.89° C | 79% | 1010 hPa | 0 mm | 1.34 m/s, 32° | - | - |
| 1777942228 | 13.89° C | 79% | 1010 hPa | 0 mm | 1.34 m/s, 32° | - | - |
| 1777941327 | 13.89° C | 79% | 1010 hPa | 0 mm | 0.89 m/s, 75° | - | - |
| 1777940427 | 14.44° C | 74% | 1011 hPa | 0 mm | 0.89 m/s, 37° | - | - |
| 1777939527 | 14.44° C | 73% | 1011 hPa | 0 mm | 0.89 m/s, 37° | - | - |
| 1777938626 | 14.44° C | 80% | 1011 hPa | 0.25 mm | 0.89 m/s, 37° | - | - |
* Rain latest hour (hover to see other rain measurements)
** Current wind speed in m/s (hover to see current wind gust speed)